createdAt,value
2023-05-20T00:00:00.394Z,0.7
2023-05-20T00:05:00.482Z,0.8
2023-05-20T00:10:00.433Z,0.7
2023-05-20T00:15:00.444Z,0.5
2023-05-20T00:20:00.330Z,0.7
2023-05-20T00:25:00.375Z,0.8
2023-05-20T00:30:00.374Z,0.5
2023-05-20T00:35:00.337Z,0.5
2023-05-20T00:40:00.349Z,0.6
2023-05-20T00:45:00.400Z,0.8
2023-05-20T00:50:00.377Z,0.4
2023-05-20T00:55:00.379Z,0.7
2023-05-20T01:00:00.383Z,0.8
2023-05-20T01:05:00.335Z,0.9
2023-05-20T01:10:00.364Z,0.6
2023-05-20T01:15:00.369Z,0.5
2023-05-20T01:20:00.341Z,0.6
2023-05-20T01:25:00.377Z,0.4
2023-05-20T01:30:00.386Z,0.6
2023-05-20T01:35:00.337Z,0.6
2023-05-20T01:40:00.377Z,0.7
2023-05-20T01:45:00.391Z,0.7
2023-05-20T01:50:00.327Z,0.9
2023-05-20T01:55:00.555Z,0.5
2023-05-20T02:00:00.365Z,0.6
2023-05-20T02:05:00.365Z,0.5
2023-05-20T02:10:00.363Z,0.6
2023-05-20T02:15:00.384Z,0.8
2023-05-20T02:20:00.346Z,1.0
2023-05-20T02:25:00.373Z,0.8
2023-05-20T02:30:00.374Z,0.8
2023-05-20T02:35:00.321Z,1.1
2023-05-20T02:40:00.371Z,0.6
2023-05-20T02:45:00.374Z,0.7
2023-05-20T02:50:00.342Z,0.7
2023-05-20T02:55:00.385Z,0.6
2023-05-20T03:00:00.400Z,0.5
2023-05-20T03:05:00.340Z,0.6
2023-05-20T03:10:00.374Z,0.6
2023-05-20T03:15:00.381Z,0.6
2023-05-20T03:20:00.323Z,0.7
2023-05-20T03:25:00.363Z,0.5
2023-05-20T03:30:00.357Z,0.7
2023-05-20T03:35:00.408Z,1.2
2023-05-20T03:40:00.380Z,0.8
2023-05-20T03:45:00.388Z,1.2
2023-05-20T03:50:00.336Z,0.8
2023-05-20T03:55:00.463Z,0.6
2023-05-20T04:00:00.367Z,0.6
2023-05-20T04:05:00.326Z,0.7
2023-05-20T04:10:00.371Z,0.9
2023-05-20T04:15:00.734Z,1.0
2023-05-20T04:20:00.473Z,0.8
2023-05-20T04:25:00.566Z,0.6
2023-05-20T04:30:01.449Z,1.0
2023-05-20T04:35:00.334Z,0.7
2023-05-20T04:40:00.495Z,0.7
2023-05-20T04:45:00.388Z,0.9
2023-05-20T04:50:00.362Z,0.9
2023-05-20T04:55:00.390Z,1.0
2023-05-20T05:00:00.474Z,1.0
2023-05-20T05:05:00.422Z,0.7
2023-05-20T05:10:00.345Z,1.0
2023-05-20T05:15:00.403Z,0.7
2023-05-20T05:20:00.378Z,0.9
2023-05-20T05:25:00.372Z,0.7
2023-05-20T05:30:00.431Z,0.9
2023-05-20T05:35:00.340Z,0.9
2023-05-20T05:40:00.335Z,0.7
2023-05-20T05:45:00.571Z,0.8
2023-05-20T05:50:00.571Z,1.1
2023-05-20T05:55:00.334Z,0.5
2023-05-20T06:00:00.520Z,0.7
2023-05-20T06:05:00.366Z,0.8
2023-05-20T06:10:00.339Z,0.8
2023-05-20T06:15:00.621Z,0.7
2023-05-20T06:20:00.515Z,0.7
2023-05-20T06:25:00.336Z,1.1
2023-05-20T06:30:00.579Z,0.8
2023-05-20T06:35:00.525Z,0.8
2023-05-20T06:40:00.356Z,0.9
2023-05-20T06:45:00.389Z,0.9
2023-05-20T06:50:00.369Z,1.1
2023-05-20T06:55:00.331Z,0.7
2023-05-20T07:00:00.433Z,0.9
2023-05-20T07:05:00.371Z,1.1
2023-05-20T07:10:00.324Z,0.8
2023-05-20T07:15:00.370Z,1.0
2023-05-20T07:20:00.414Z,1.2
2023-05-20T07:25:00.384Z,0.7
2023-05-20T07:30:00.443Z,0.8
2023-05-20T07:35:00.334Z,1.0
2023-05-20T07:40:00.390Z,0.9
2023-05-20T07:45:00.376Z,0.7
2023-05-20T07:50:00.344Z,1.1
2023-05-20T07:55:00.411Z,0.7
2023-05-20T08:00:00.420Z,1.1
2023-05-20T08:05:00.326Z,1.5
2023-05-20T08:10:00.385Z,1.2
2023-05-20T08:15:00.394Z,1.2
2023-05-20T08:20:00.392Z,0.7
2023-05-20T08:25:00.546Z,1.3
2023-05-20T08:30:00.905Z,1.3
2023-05-20T08:35:00.331Z,1.0
2023-05-20T08:40:00.375Z,1.2
2023-05-20T08:45:00.351Z,1.0
2023-05-20T08:50:00.358Z,1.0
2023-05-20T08:55:00.375Z,1.2
2023-05-20T09:00:00.422Z,0.9
2023-05-20T09:05:00.371Z,0.6
2023-05-20T09:10:00.381Z,0.9
2023-05-20T09:15:00.388Z,0.7
2023-05-20T09:20:00.376Z,0.8
2023-05-20T09:25:00.394Z,1.2
2023-05-20T09:30:00.446Z,1.0
2023-05-20T09:35:00.329Z,0.7
2023-05-20T09:40:00.369Z,0.8
2023-05-20T09:45:00.382Z,0.9
2023-05-20T09:50:00.340Z,0.8
2023-05-20T09:55:00.380Z,0.7
2023-05-20T10:00:00.417Z,0.8
2023-05-20T10:05:00.328Z,0.9
2023-05-20T10:10:00.385Z,0.7
2023-05-20T10:15:00.390Z,1.1
2023-05-20T10:20:00.345Z,0.7
2023-05-20T10:25:00.419Z,0.8
2023-05-20T10:30:00.446Z,0.6
2023-05-20T10:35:00.367Z,1.0
2023-05-20T10:40:00.340Z,0.7
2023-05-20T10:45:00.393Z,0.7
2023-05-20T10:50:00.403Z,0.7
2023-05-20T10:55:00.358Z,0.8
2023-05-20T11:00:00.417Z,0.9
2023-05-20T11:05:00.409Z,0.8
2023-05-20T11:10:00.310Z,0.8
2023-05-20T11:15:00.411Z,0.8
2023-05-20T11:20:00.411Z,1.4
2023-05-20T11:25:00.348Z,0.9
2023-05-20T11:30:00.391Z,0.9
2023-05-20T11:35:00.404Z,2.2
2023-05-20T11:40:00.341Z,1.0
2023-05-20T11:45:01.307Z,1.1
2023-05-20T11:50:00.466Z,1.5
2023-05-20T11:55:00.327Z,1.1
2023-05-20T12:00:00.428Z,1.1
2023-05-20T12:05:00.597Z,1.0
2023-05-20T12:10:00.316Z,1.1
2023-05-20T12:15:00.554Z,0.8
2023-05-20T12:20:00.429Z,0.9
2023-05-20T12:25:00.333Z,1.2
2023-05-20T12:30:00.423Z,1.0
2023-05-20T12:35:00.380Z,1.3
2023-05-20T12:40:00.338Z,1.0
2023-05-20T12:45:00.414Z,1.6
2023-05-20T12:50:00.503Z,1.1
2023-05-20T12:55:00.325Z,1.1
2023-05-20T13:00:00.423Z,1.6
2023-05-20T13:05:00.380Z,1.0
2023-05-20T13:10:00.332Z,1.1
2023-05-20T13:15:00.384Z,1.7
2023-05-20T13:20:00.463Z,0.9
2023-05-20T13:25:00.326Z,1.0
2023-05-20T13:30:00.424Z,0.9
2023-05-20T13:35:00.410Z,1.6
2023-05-20T13:40:00.351Z,0.9
2023-05-20T13:45:00.383Z,1.0
2023-05-20T13:50:02.815Z,1.1
2023-05-20T13:55:00.345Z,0.9
2023-05-20T14:00:00.406Z,0.9
2023-05-20T14:05:00.327Z,1.3
2023-05-20T14:10:00.335Z,1.1
2023-05-20T14:15:00.377Z,1.2
2023-05-20T14:20:00.334Z,1.0
2023-05-20T14:25:00.333Z,1.1
2023-05-20T14:30:00.414Z,1.6
2023-05-20T14:35:00.328Z,1.0
2023-05-20T14:40:00.396Z,1.0
2023-05-20T14:45:00.403Z,1.4
2023-05-20T14:50:00.356Z,1.6
2023-05-20T14:55:00.324Z,1.6
2023-05-20T15:00:00.445Z,1.2
2023-05-20T15:05:00.327Z,1.1
2023-05-20T15:10:00.377Z,1.3
2023-05-20T15:15:00.379Z,1.2
2023-05-20T15:20:00.344Z,1.1
2023-05-20T15:25:00.342Z,1.9
2023-05-20T15:30:00.427Z,1.3
2023-05-20T15:35:01.918Z,3.2
2023-05-20T15:40:00.323Z,2.1
2023-05-20T15:45:00.393Z,2.5
2023-05-20T15:50:00.343Z,2.9
2023-05-20T15:55:00.325Z,2.2
2023-05-20T16:00:00.420Z,2.2
2023-05-20T16:05:00.332Z,3.2
2023-05-20T16:10:00.435Z,2.7
2023-05-20T16:15:00.423Z,2.0
2023-05-20T16:20:00.525Z,2.1
2023-05-20T16:25:00.337Z,2.9
2023-05-20T16:30:00.552Z,2.3
2023-05-20T16:35:00.359Z,1.7
2023-05-20T16:40:00.362Z,2.4
2023-05-20T16:45:01.675Z,3.1
2023-05-20T16:50:00.385Z,2.9
2023-05-20T16:55:00.330Z,4.3
2023-05-20T17:00:00.453Z,3.1
2023-05-20T17:05:00.324Z,3.5
2023-05-20T17:10:00.356Z,2.8
2023-05-20T17:15:00.418Z,3.6
2023-05-20T17:20:00.349Z,2.3
2023-05-20T17:25:00.358Z,2.2
2023-05-20T17:30:00.432Z,3.3
2023-05-20T17:35:00.334Z,2.3
2023-05-20T17:40:00.337Z,2.9
2023-05-20T17:45:00.364Z,1.9
2023-05-20T17:50:00.341Z,1.8
2023-05-20T17:55:00.363Z,3.2
2023-05-20T18:00:00.766Z,2.5
2023-05-20T18:05:00.326Z,2.7
2023-05-20T18:10:00.348Z,2.2
2023-05-20T18:15:00.390Z,2.0
2023-05-20T18:20:00.365Z,2.3
2023-05-20T18:25:00.326Z,3.7
2023-05-20T18:30:00.416Z,3.7
2023-05-20T18:35:00.335Z,3.1
2023-05-20T18:40:00.354Z,3.1
2023-05-20T18:45:00.406Z,3.9
2023-05-20T18:50:00.354Z,4.5
2023-05-20T18:55:00.339Z,2.7
2023-05-20T19:00:00.425Z,3.7
2023-05-20T19:05:00.403Z,2.5
2023-05-20T19:10:00.338Z,3.4
2023-05-20T19:15:00.405Z,4.4
2023-05-20T19:20:00.337Z,3.3
2023-05-20T19:25:00.322Z,3.5
2023-05-20T19:30:00.396Z,4.2
2023-05-20T19:35:00.319Z,2.3
2023-05-20T19:40:00.321Z,2.9
2023-05-20T19:45:00.539Z,2.4
2023-05-20T19:50:00.346Z,2.0
2023-05-20T19:55:00.336Z,2.9
2023-05-20T20:00:00.440Z,1.7
2023-05-20T20:05:00.479Z,1.3
2023-05-20T20:10:00.319Z,1.7
2023-05-20T20:15:00.567Z,1.7
2023-05-20T20:20:00.375Z,1.6
2023-05-20T20:25:00.334Z,1.5
2023-05-20T20:30:00.404Z,1.6
2023-05-20T20:35:00.354Z,2.1
2023-05-20T20:40:00.337Z,1.3
2023-05-20T20:45:00.428Z,1.4
2023-05-20T20:50:00.349Z,1.7
2023-05-20T20:55:00.340Z,1.5
2023-05-20T21:00:00.405Z,1.8
2023-05-20T21:05:00.342Z,1.9
2023-05-20T21:10:00.327Z,1.2
2023-05-20T21:15:00.412Z,1.3
2023-05-20T21:20:00.349Z,1.0
2023-05-20T21:25:00.340Z,2.0
2023-05-20T21:30:00.392Z,1.6
2023-05-20T21:35:00.327Z,1.7
2023-05-20T21:40:00.569Z,2.2
2023-05-20T21:45:00.356Z,1.7
2023-05-20T21:50:00.581Z,1.3
2023-05-20T21:55:00.365Z,1.8
2023-05-20T22:00:00.472Z,1.4
2023-05-20T22:05:00.359Z,1.2
2023-05-20T22:10:00.371Z,2.6
2023-05-20T22:15:00.358Z,1.6
2023-05-20T22:20:00.329Z,2.1
2023-05-20T22:25:00.371Z,2.0
2023-05-20T22:30:00.365Z,1.5
2023-05-20T22:35:00.329Z,1.6
2023-05-20T22:40:00.535Z,2.2
2023-05-20T22:45:00.385Z,1.4
2023-05-20T22:50:00.331Z,1.4
2023-05-20T22:55:00.374Z,2.0
2023-05-20T23:00:00.423Z,1.3
2023-05-20T23:05:00.329Z,1.5
2023-05-20T23:10:00.390Z,2.7
2023-05-20T23:15:00.361Z,1.4
2023-05-20T23:20:00.339Z,1.5
2023-05-20T23:25:00.395Z,2.3
2023-05-20T23:30:00.381Z,1.4
2023-05-20T23:35:00.336Z,1.2
2023-05-20T23:40:00.369Z,1.5
2023-05-20T23:45:00.356Z,1.7
2023-05-20T23:50:00.351Z,1.6
2023-05-20T23:55:00.466Z,1.2
